createdAt,value
2023-04-11T00:00:36.104Z,51.28
2023-04-11T00:03:02.707Z,51.15
2023-04-11T00:05:32.726Z,51.24
2023-04-11T00:07:59.205Z,51.33
2023-04-11T00:10:25.695Z,51.56
2023-04-11T00:12:56.349Z,50.80
2023-04-11T00:15:26.869Z,51.55
2023-04-11T00:17:53.895Z,53.73
2023-04-11T00:20:21.103Z,56.23
2023-04-11T00:22:47.753Z,57.59
2023-04-11T00:25:15.291Z,59.70
2023-04-11T00:27:41.690Z,59.63
2023-04-11T00:30:08.443Z,59.25
2023-04-11T00:32:34.893Z,59.74
2023-04-11T00:35:01.815Z,58.93
2023-04-11T00:37:28.334Z,60.01
2023-04-11T00:39:56.137Z,59.22
2023-04-11T00:42:22.896Z,59.34
2023-04-11T00:44:50.776Z,58.98
2023-04-11T00:47:18.242Z,58.35
2023-04-11T00:49:45.687Z,58.57
2023-04-11T00:52:13.648Z,58.44
2023-04-11T00:54:40.311Z,58.37
2023-04-11T00:57:07.828Z,57.45
2023-04-11T00:59:35.155Z,57.33
2023-04-11T01:02:01.964Z,57.54
2023-04-11T01:04:55.099Z,57.38
2023-04-11T01:07:23.157Z,57.65
2023-04-11T01:09:49.966Z,57.80
2023-04-11T01:12:17.380Z,58.26
2023-04-11T01:14:47.678Z,58.46
2023-04-11T01:17:15.376Z,58.68
2023-04-11T01:19:42.628Z,59.26
2023-04-11T01:22:10.874Z,59.96
2023-04-11T01:24:37.614Z,60.59
2023-04-11T01:27:04.320Z,61.13
2023-04-11T01:29:31.688Z,61.45
2023-04-11T01:31:58.300Z,61.54
2023-04-11T01:34:28.197Z,61.71
2023-04-11T01:36:54.969Z,62.78
2023-04-11T01:39:21.452Z,63.12
2023-04-11T01:41:48.912Z,66.19
2023-04-11T01:44:15.708Z,67.53
2023-04-11T01:46:43.235Z,68.05
2023-04-11T01:49:09.805Z,67.22
2023-04-11T01:51:36.328Z,67.07
2023-04-11T01:54:02.732Z,67.98
2023-04-11T01:56:29.183Z,67.39
2023-04-11T01:58:58.905Z,67.03
2023-04-11T02:01:25.664Z,68.53
2023-04-11T02:03:52.294Z,68.96
2023-04-11T02:06:18.832Z,69.63
2023-04-11T02:08:45.365Z,69.98
2023-04-11T02:11:11.833Z,70.84
2023-04-11T02:13:38.372Z,72.44
2023-04-11T02:16:14.940Z,72.79
2023-04-11T02:18:43.284Z,73.19
2023-04-11T02:21:10.152Z,74.10
2023-04-11T02:23:37.308Z,74.84
2023-04-11T02:26:05.733Z,74.80
2023-04-11T02:28:32.341Z,75.50
2023-04-11T02:30:59.168Z,76.12
2023-04-11T02:33:26.175Z,76.48
2023-04-11T02:35:52.674Z,77.12
2023-04-11T02:38:20.986Z,78.38
2023-04-11T02:40:47.570Z,78.91
2023-04-11T02:43:14.169Z,78.54
2023-04-11T02:45:41.296Z,78.29
2023-04-11T02:48:08.330Z,79.13
2023-04-11T02:50:40.936Z,79.16
2023-04-11T02:53:07.752Z,79.30
2023-04-11T02:55:36.758Z,79.48
2023-04-11T02:58:03.275Z,79.20
2023-04-11T03:00:29.926Z,79.29
2023-04-11T03:03:02.980Z,78.24
2023-04-11T03:05:33.893Z,78.64
2023-04-11T03:08:00.412Z,77.95
2023-04-11T03:10:30.900Z,77.98
2023-04-11T03:12:58.831Z,77.83
2023-04-11T03:15:25.379Z,77.05
2023-04-11T03:17:51.873Z,76.18
2023-04-11T03:20:19.623Z,76.56
2023-04-11T03:22:49.433Z,74.67
2023-04-11T03:25:17.581Z,74.09
2023-04-11T03:27:46.270Z,73.34
2023-04-11T03:30:14.311Z,72.66
2023-04-11T03:32:42.815Z,73.32
2023-04-11T03:35:10.908Z,72.75
2023-04-11T03:37:41.004Z,71.73
2023-04-11T03:40:10.759Z,72.39
2023-04-11T03:42:40.760Z,71.69
2023-04-11T03:45:10.748Z,71.62
2023-04-11T03:47:38.396Z,72.18
2023-04-11T03:50:06.598Z,72.15
2023-04-11T03:52:38.942Z,72.16
2023-04-11T03:55:10.604Z,72.87
2023-04-11T03:57:37.956Z,72.83
2023-04-11T04:00:07.926Z,73.14
2023-04-11T04:02:41.848Z,73.43
2023-04-11T04:05:11.622Z,74.67
2023-04-11T04:07:39.920Z,75.19
2023-04-11T04:10:13.387Z,75.84
2023-04-11T04:12:41.848Z,75.42
2023-04-11T04:15:14.933Z,75.52
2023-04-11T04:17:44.064Z,75.60
2023-04-11T04:20:17.265Z,75.21
2023-04-11T04:22:49.351Z,74.62
2023-04-11T04:25:20.618Z,74.57
2023-04-11T04:27:48.971Z,74.06
2023-04-11T04:30:15.782Z,73.06
2023-04-11T04:33:01.500Z,72.66
2023-04-11T04:35:30.091Z,72.46
2023-04-11T04:38:06.048Z,71.08
2023-04-11T04:40:58.524Z,71.14
2023-04-11T04:43:27.123Z,71.26
2023-04-11T04:46:05.629Z,71.55
2023-04-11T04:48:40.008Z,73.69
2023-04-11T04:51:07.658Z,73.92
2023-04-11T04:53:38.790Z,75.26
2023-04-11T04:56:07.296Z,76.29
2023-04-11T04:58:38.001Z,76.29
2023-04-11T05:01:09.080Z,76.48
2023-04-11T05:03:38.693Z,76.59
2023-04-11T05:06:09.689Z,77.44
2023-04-11T05:08:37.328Z,77.75
2023-04-11T05:11:06.384Z,77.80
2023-04-11T05:13:34.140Z,78.56
2023-04-11T05:16:02.336Z,78.53
2023-04-11T05:18:30.564Z,78.20
2023-04-11T05:20:57.543Z,78.73
2023-04-11T05:23:29.932Z,78.47
2023-04-11T05:25:59.953Z,77.83
2023-04-11T05:28:26.704Z,78.63
2023-04-11T05:30:53.777Z,79.09
2023-04-11T05:33:23.256Z,79.73
2023-04-11T05:35:50.086Z,79.76
2023-04-11T05:38:17.496Z,79.86
2023-04-11T05:40:43.905Z,79.69
2023-04-11T05:43:13.483Z,79.21
2023-04-11T05:45:47.460Z,79.68
2023-04-11T05:48:16.241Z,79.00
2023-04-11T05:50:42.959Z,79.60
2023-04-11T05:53:09.484Z,78.82
2023-04-11T05:55:36.592Z,79.36
2023-04-11T05:58:03.287Z,78.32
2023-04-11T06:00:31.671Z,78.29
2023-04-11T06:03:00.012Z,78.24
2023-04-11T06:05:26.831Z,78.45
2023-04-11T06:07:53.435Z,79.19
2023-04-11T06:10:20.037Z,79.44
2023-04-11T06:12:46.472Z,79.38
2023-04-11T06:15:13.867Z,79.07
2023-04-11T06:17:40.403Z,79.18
2023-04-11T06:20:08.349Z,79.08
2023-04-11T06:22:34.773Z,79.33
2023-04-11T06:25:01.237Z,80.10
2023-04-11T06:27:27.868Z,79.43
2023-04-11T06:29:54.344Z,79.54
2023-04-11T06:32:21.655Z,79.12
2023-04-11T06:34:48.088Z,78.69
2023-04-11T06:37:14.949Z,78.70
2023-04-11T06:39:41.370Z,77.97
2023-04-11T06:42:07.815Z,77.96
2023-04-11T06:44:34.574Z,76.66
2023-04-11T06:47:01.443Z,76.38
2023-04-11T06:49:31.291Z,76.67
2023-04-11T06:51:59.329Z,76.49
2023-04-11T06:54:25.909Z,75.75
2023-04-11T06:56:52.441Z,76.13
2023-04-11T06:59:20.491Z,75.16
2023-04-11T07:01:47.564Z,75.58
2023-04-11T07:04:14.207Z,74.26
2023-04-11T07:06:40.803Z,74.48
2023-04-11T07:09:07.457Z,73.50
2023-04-11T07:11:33.920Z,73.46
2023-04-11T07:14:00.723Z,73.87
2023-04-11T07:16:27.409Z,74.04
2023-04-11T07:18:54.788Z,74.14
2023-04-11T07:21:21.339Z,74.02
2023-04-11T07:23:48.256Z,75.18
2023-04-11T07:26:16.845Z,75.76
2023-04-11T07:28:44.928Z,75.24
2023-04-11T07:31:12.661Z,74.54
2023-04-11T07:33:42.461Z,74.34
2023-04-11T07:36:09.565Z,73.94
2023-04-11T07:38:37.607Z,73.57
2023-04-11T07:41:05.265Z,73.85
2023-04-11T07:43:32.049Z,73.82
2023-04-11T07:45:58.842Z,73.24
2023-04-11T07:48:28.003Z,72.61
2023-04-11T07:50:55.277Z,72.42
2023-04-11T07:53:22.520Z,72.75
2023-04-11T07:55:49.023Z,72.24
2023-04-11T07:58:15.665Z,72.80
2023-04-11T08:00:42.097Z,71.76
2023-04-11T08:03:10.281Z,72.35
2023-04-11T08:05:37.926Z,70.67
2023-04-11T08:08:04.975Z,69.71
2023-04-11T08:10:31.940Z,70.44
2023-04-11T08:12:58.738Z,70.39
2023-04-11T08:15:26.417Z,70.42
2023-04-11T08:17:56.487Z,69.61
2023-04-11T08:20:24.019Z,70.51
2023-04-11T08:22:50.575Z,71.15
2023-04-11T08:25:22.669Z,71.88
2023-04-11T08:27:50.775Z,71.25
2023-04-11T08:30:17.814Z,69.60
2023-04-11T08:32:44.532Z,70.23
2023-04-11T08:35:11.276Z,68.95
2023-04-11T08:37:37.880Z,67.19
2023-04-11T08:40:06.912Z,68.31
2023-04-11T08:42:34.249Z,68.84
2023-04-11T08:45:08.627Z,66.38
2023-04-11T08:47:36.429Z,65.28
2023-04-11T08:50:03.926Z,66.34
2023-04-11T08:52:30.968Z,66.34
2023-04-11T08:54:57.375Z,65.74
2023-04-11T08:57:31.413Z,65.65
2023-04-11T09:00:00.686Z,65.43
2023-04-11T09:02:27.761Z,64.49
2023-04-11T09:04:54.963Z,65.06
2023-04-11T09:07:22.110Z,65.21
2023-04-11T09:09:48.557Z,65.77
2023-04-11T09:12:15.257Z,63.25
2023-04-11T09:14:42.029Z,64.25
2023-04-11T09:17:15.905Z,64.56
2023-04-11T09:19:42.416Z,63.27
2023-04-11T09:22:09.122Z,63.59
2023-04-11T09:24:36.646Z,63.41
2023-04-11T09:27:15.657Z,63.37
2023-04-11T09:29:48.821Z,62.36
2023-04-11T09:32:32.677Z,63.23
2023-04-11T09:35:16.533Z,61.95
2023-04-11T09:37:44.975Z,61.93
2023-04-11T09:40:12.072Z,61.96
2023-04-11T09:42:38.943Z,60.57
2023-04-11T09:45:06.137Z,59.40
2023-04-11T09:47:33.564Z,61.20
2023-04-11T09:50:00.361Z,60.59
2023-04-11T09:52:27.215Z,59.34
2023-04-11T09:54:54.412Z,60.76
2023-04-11T09:57:22.671Z,56.26
2023-04-11T09:59:49.845Z,59.53
2023-04-11T10:02:16.318Z,57.33
2023-04-11T10:04:43.217Z,56.04
2023-04-11T10:07:14.180Z,58.14
2023-04-11T10:09:43.061Z,57.19
2023-04-11T10:12:09.512Z,54.48
2023-04-11T10:14:38.784Z,55.77
2023-04-11T10:17:21.928Z,55.86
2023-04-11T10:19:56.352Z,56.22
2023-04-11T10:22:43.917Z,56.56
2023-04-11T10:25:20.990Z,54.98
2023-04-11T10:27:49.259Z,56.61
2023-04-11T10:30:16.185Z,55.80
2023-04-11T10:33:21.210Z,55.62
2023-04-11T10:35:58.148Z,55.49
2023-04-11T10:38:36.816Z,55.60
2023-04-11T10:41:28.502Z,55.56
2023-04-11T10:44:24.919Z,56.12
2023-04-11T10:46:55.962Z,55.88
2023-04-11T10:49:39.318Z,55.40
2023-04-11T10:52:21.340Z,55.13
2023-04-11T10:54:52.286Z,54.43
2023-04-11T10:57:19.552Z,55.03
2023-04-11T10:59:51.961Z,50.32
2023-04-11T11:02:21.927Z,52.55
2023-04-11T11:04:49.363Z,50.57
2023-04-11T11:07:17.312Z,51.32
2023-04-11T11:09:49.117Z,50.33
2023-04-11T11:12:17.026Z,50.64
2023-04-11T11:14:45.623Z,50.99
2023-04-11T11:17:13.637Z,51.67
2023-04-11T11:19:48.061Z,49.58
2023-04-11T11:22:16.189Z,50.44
2023-04-11T11:24:42.653Z,51.02
2023-04-11T11:27:22.476Z,48.69
2023-04-11T11:29:48.948Z,48.73
2023-04-11T11:32:28.687Z,48.96
2023-04-11T11:34:57.338Z,50.30
2023-04-11T11:37:23.891Z,50.09
2023-04-11T11:39:51.235Z,47.68
2023-04-11T11:42:18.103Z,49.13
2023-04-11T11:44:44.562Z,48.58
2023-04-11T11:47:15.400Z,49.56
2023-04-11T11:49:53.153Z,49.17
2023-04-11T11:52:36.736Z,47.83
2023-04-11T11:55:06.885Z,48.70
2023-04-11T11:57:34.738Z,48.61
2023-04-11T12:00:05.748Z,47.98
2023-04-11T12:02:34.378Z,47.45
2023-04-11T12:05:04.155Z,46.63
2023-04-11T12:07:35.693Z,47.25
2023-04-11T12:10:08.940Z,46.79
2023-04-11T12:12:37.164Z,47.64
2023-04-11T12:15:10.872Z,48.23
2023-04-11T12:17:38.226Z,46.83
2023-04-11T12:20:10.544Z,46.26
2023-04-11T12:22:37.772Z,46.95
2023-04-11T12:25:11.705Z,45.29
2023-04-11T12:27:39.892Z,45.92
2023-04-11T12:30:07.235Z,43.84
2023-04-11T12:32:34.432Z,44.23
2023-04-11T12:35:01.987Z,44.64
2023-04-11T12:37:28.535Z,43.32
2023-04-11T12:39:54.970Z,42.65
2023-04-11T12:42:24.229Z,42.11
2023-04-11T12:44:53.511Z,42.55
2023-04-11T12:47:19.937Z,42.66
2023-04-11T12:49:46.349Z,42.34
2023-04-11T12:52:12.776Z,42.47
2023-04-11T12:54:39.210Z,42.72
2023-04-11T12:57:05.764Z,41.45
2023-04-11T12:59:32.601Z,42.88
2023-04-11T13:01:59.480Z,42.89
2023-04-11T13:04:26.137Z,40.96
2023-04-11T13:06:52.649Z,40.84
2023-04-11T13:09:19.091Z,41.35
2023-04-11T13:11:45.698Z,41.17
2023-04-11T13:14:12.178Z,42.47
2023-04-11T13:16:38.687Z,42.49
2023-04-11T13:19:07.300Z,43.48
2023-04-11T13:21:33.711Z,41.86
2023-04-11T13:24:00.150Z,41.73
2023-04-11T13:26:26.592Z,43.74
2023-04-11T13:28:53.034Z,43.00
2023-04-11T13:31:19.703Z,42.53
2023-04-11T13:33:47.907Z,41.79
2023-04-11T13:36:14.401Z,41.19
2023-04-11T13:38:41.028Z,41.43
2023-04-11T13:41:07.547Z,39.95
2023-04-11T13:43:33.993Z,39.45
2023-04-11T13:46:00.509Z,39.77
2023-04-11T13:48:27.015Z,38.94
2023-04-11T13:50:57.192Z,38.68
2023-04-11T13:53:26.817Z,36.77
2023-04-11T13:55:53.290Z,38.85
2023-04-11T13:58:19.774Z,38.92
2023-04-11T14:00:46.653Z,36.42
2023-04-11T14:03:15.323Z,38.38
2023-04-11T14:05:41.851Z,40.24
2023-04-11T14:08:08.289Z,41.86
2023-04-11T14:10:34.724Z,41.58
2023-04-11T14:13:02.221Z,41.99
2023-04-11T14:15:28.653Z,42.42
2023-04-11T14:17:55.404Z,42.40
2023-04-11T14:20:21.873Z,43.42
2023-04-11T14:22:48.344Z,39.63
2023-04-11T14:25:15.660Z,40.67
2023-04-11T14:27:42.183Z,40.54
2023-04-11T14:30:09.896Z,41.81
2023-04-11T14:32:36.833Z,41.15
2023-04-11T14:35:04.727Z,39.81
2023-04-11T14:37:40.354Z,39.16
2023-04-11T14:40:10.701Z,39.40
2023-04-11T14:42:37.826Z,38.86
2023-04-11T14:45:05.820Z,38.27
2023-04-11T14:47:32.584Z,39.38
2023-04-11T14:49:59.110Z,40.09
2023-04-11T14:52:25.848Z,39.34
2023-04-11T14:54:52.394Z,36.95
2023-04-11T14:57:18.885Z,38.42
2023-04-11T14:59:45.299Z,37.73
2023-04-11T15:02:11.888Z,39.16
2023-04-11T15:04:38.479Z,38.57
2023-04-11T15:07:04.962Z,34.92
2023-04-11T15:09:31.573Z,34.27
2023-04-11T15:11:58.046Z,35.24
2023-04-11T15:14:29.274Z,37.09
2023-04-11T15:16:56.404Z,36.67
2023-04-11T15:19:23.129Z,36.10
2023-04-11T15:21:49.570Z,35.33
2023-04-11T15:24:16.966Z,35.75
2023-04-11T15:26:44.618Z,37.04
2023-04-11T15:29:15.658Z,36.00
2023-04-11T15:31:42.189Z,37.28
2023-04-11T15:34:08.688Z,36.19
2023-04-11T15:36:38.337Z,37.19
2023-04-11T15:39:05.163Z,38.37
2023-04-11T15:41:34.267Z,38.25
2023-04-11T15:44:00.713Z,39.10
2023-04-11T15:46:27.209Z,39.48
2023-04-11T15:48:53.663Z,40.44
2023-04-11T15:51:20.213Z,38.97
2023-04-11T15:53:48.277Z,38.00
2023-04-11T15:56:14.734Z,39.11
2023-04-11T15:58:41.951Z,36.91
2023-04-11T16:01:20.903Z,37.61
2023-04-11T16:03:48.049Z,38.95
2023-04-11T16:06:14.878Z,38.98
2023-04-11T16:08:41.350Z,39.04
2023-04-11T16:11:07.873Z,38.98
2023-04-11T16:13:34.340Z,39.74
2023-04-11T16:16:00.864Z,39.77
2023-04-11T16:18:27.496Z,38.77
2023-04-11T16:20:53.996Z,38.17
2023-04-11T16:23:20.423Z,37.90
2023-04-11T16:25:46.836Z,38.08
2023-04-11T16:28:14.141Z,38.28
2023-04-11T16:30:40.577Z,38.34
2023-04-11T16:33:07.403Z,39.76
2023-04-11T16:35:33.969Z,41.13
2023-04-11T16:38:00.616Z,40.84
2023-04-11T16:40:27.105Z,42.47
2023-04-11T16:42:53.548Z,42.03
2023-04-11T16:45:20.303Z,41.90
2023-04-11T16:47:46.770Z,41.64
2023-04-11T16:50:13.198Z,42.22
2023-04-11T16:52:40.454Z,42.57
2023-04-11T16:55:07.154Z,42.19
2023-04-11T16:57:33.804Z,43.29
2023-04-11T17:00:01.030Z,42.36
2023-04-11T17:02:27.674Z,43.24
2023-04-11T17:04:54.158Z,44.14
2023-04-11T17:07:20.608Z,44.28
2023-04-11T17:09:48.392Z,43.91
2023-04-11T17:12:14.839Z,44.65
2023-04-11T17:14:41.253Z,44.51
2023-04-11T17:17:07.788Z,44.39
2023-04-11T17:19:34.297Z,44.38
2023-04-11T17:22:01.002Z,44.52
2023-04-11T17:24:27.459Z,45.32
2023-04-11T17:26:53.868Z,45.99
2023-04-11T17:29:20.324Z,46.24
2023-04-11T17:31:47.107Z,46.28
2023-04-11T17:34:13.660Z,46.60
2023-04-11T17:36:42.811Z,46.47
2023-04-11T17:39:16.897Z,46.47
2023-04-11T17:41:45.265Z,46.51
2023-04-11T17:44:11.988Z,46.67
2023-04-11T17:46:38.714Z,46.64
2023-04-11T17:49:05.226Z,46.64
2023-04-11T17:51:31.660Z,47.33
2023-04-11T17:53:58.242Z,46.67
2023-04-11T17:56:25.484Z,47.38
2023-04-11T17:58:52.913Z,47.20
2023-04-11T18:01:19.465Z,48.10
2023-04-11T18:03:47.039Z,47.18
2023-04-11T18:06:13.601Z,47.95
2023-04-11T18:11:09.609Z,48.17
2023-04-11T18:13:36.033Z,48.64
2023-04-11T18:16:02.496Z,50.65
2023-04-11T18:18:28.928Z,50.67
2023-04-11T18:20:55.489Z,50.68
2023-04-11T18:23:21.954Z,52.43
2023-04-11T18:25:48.375Z,50.70
2023-04-11T18:28:14.797Z,50.03
2023-04-11T18:30:41.196Z,52.01
2023-04-11T18:33:08.195Z,52.58
2023-04-11T18:35:34.749Z,52.33
2023-04-11T18:38:02.544Z,53.26
2023-04-11T18:40:29.662Z,53.84
2023-04-11T18:42:56.833Z,53.61
2023-04-11T18:45:24.156Z,53.78
2023-04-11T18:47:51.097Z,54.78
2023-04-11T18:50:18.656Z,55.20
2023-04-11T18:52:46.421Z,55.36
2023-04-11T18:55:14.867Z,55.41
2023-04-11T18:57:43.327Z,55.78
2023-04-11T19:00:20.458Z,56.44
2023-04-11T19:02:50.175Z,55.76
2023-04-11T19:05:17.955Z,56.58
2023-04-11T19:07:45.762Z,55.96
2023-04-11T19:10:12.677Z,56.71
2023-04-11T19:12:39.488Z,57.08
2023-04-11T19:15:07.869Z,57.57
2023-04-11T19:17:38.593Z,58.24
2023-04-11T19:20:16.468Z,58.15
2023-04-11T19:22:43.244Z,57.89
2023-04-11T19:25:11.068Z,57.78
2023-04-11T19:27:40.139Z,58.13
2023-04-11T19:30:08.639Z,59.06
2023-04-11T19:32:38.555Z,58.93
2023-04-11T19:35:08.528Z,59.26
2023-04-11T19:37:35.117Z,59.56
2023-04-11T19:40:02.193Z,59.25
2023-04-11T19:42:32.923Z,59.30
2023-04-11T19:44:59.483Z,58.89
2023-04-11T19:47:25.956Z,59.42
2023-04-11T19:49:53.564Z,59.71
2023-04-11T19:52:19.983Z,59.71
2023-04-11T19:54:46.463Z,59.62
2023-04-11T19:57:12.867Z,60.30
2023-04-11T19:59:39.291Z,61.24
2023-04-11T20:02:06.012Z,61.17
2023-04-11T20:04:32.547Z,61.49
2023-04-11T20:07:00.756Z,61.54
2023-04-11T20:09:29.735Z,61.54
2023-04-11T20:11:56.789Z,61.82
2023-04-11T20:14:23.231Z,61.72
2023-04-11T20:16:49.679Z,61.25
2023-04-11T20:19:16.134Z,61.55
2023-04-11T20:21:42.546Z,61.39
2023-04-11T20:24:12.240Z,61.59
2023-04-11T20:26:38.680Z,61.15
2023-04-11T20:29:06.364Z,61.29
2023-04-11T20:31:32.889Z,60.87
2023-04-11T20:33:59.657Z,60.81
2023-04-11T20:36:27.394Z,60.75
2023-04-11T20:38:55.524Z,60.49
2023-04-11T20:41:22.300Z,60.57
2023-04-11T20:43:48.896Z,60.23
2023-04-11T20:46:17.754Z,60.49
2023-04-11T20:48:45.894Z,59.90
2023-04-11T20:51:12.332Z,60.06
2023-04-11T20:53:38.791Z,61.32
2023-04-11T20:56:05.509Z,62.18
2023-04-11T20:58:31.963Z,61.81
2023-04-11T21:00:59.264Z,62.79
2023-04-11T21:03:30.198Z,62.44
2023-04-11T21:05:56.861Z,62.53
2023-04-11T21:08:23.669Z,62.33
2023-04-11T21:10:50.106Z,61.72
2023-04-11T21:13:16.694Z,62.19
2023-04-11T21:15:43.155Z,62.50
2023-04-11T21:18:09.767Z,62.87
2023-04-11T21:20:39.556Z,63.56
2023-04-11T21:23:06.068Z,63.68
2023-04-11T21:25:32.487Z,63.84
2023-04-11T21:27:58.905Z,64.22
2023-04-11T21:30:25.419Z,64.40
2023-04-11T21:32:52.116Z,63.92
2023-04-11T21:35:18.602Z,62.94
2023-04-11T21:37:47.059Z,63.64
2023-04-11T21:40:15.016Z,64.46
2023-04-11T21:42:41.570Z,63.94
2023-04-11T21:45:08.665Z,64.08
2023-04-11T21:47:35.168Z,62.66
2023-04-11T21:50:01.724Z,62.38
2023-04-11T21:52:28.200Z,60.87
2023-04-11T21:54:54.602Z,60.26
2023-04-11T21:57:21.032Z,59.89
2023-04-11T21:59:47.434Z,60.57
2023-04-11T22:02:14.416Z,60.02
2023-04-11T22:04:51.638Z,59.22
2023-04-11T22:07:31.606Z,59.41
2023-04-11T22:10:09.118Z,60.98
2023-04-11T22:12:36.539Z,61.50
2023-04-11T22:15:03.772Z,61.84
2023-04-11T22:17:31.704Z,61.40
2023-04-11T22:19:58.277Z,61.80
2023-04-11T22:22:27.765Z,62.20
2023-04-11T22:24:57.717Z,62.62
2023-04-11T22:27:26.257Z,64.38
2023-04-11T22:29:59.720Z,65.13
2023-04-11T22:32:26.532Z,65.13
2023-04-11T22:34:53.033Z,65.63
2023-04-11T22:37:19.488Z,65.82
2023-04-11T22:39:45.996Z,65.74
2023-04-11T22:42:12.558Z,65.56
2023-04-11T22:44:39.122Z,65.68
2023-04-11T22:47:08.385Z,65.82
2023-04-11T22:49:41.687Z,65.83
2023-04-11T22:52:09.290Z,65.97
2023-04-11T22:54:35.815Z,66.44
2023-04-11T22:57:02.384Z,66.77
2023-04-11T22:59:28.877Z,67.29
2023-04-11T23:01:55.523Z,67.29
2023-04-11T23:04:22.432Z,66.97
2023-04-11T23:06:52.023Z,67.44
2023-04-11T23:09:18.783Z,67.21
2023-04-11T23:11:48.797Z,67.13
2023-04-11T23:14:17.922Z,67.58
2023-04-11T23:16:44.994Z,67.60
2023-04-11T23:19:11.675Z,68.08
2023-04-11T23:21:38.156Z,68.06
2023-04-11T23:24:06.636Z,68.01
2023-04-11T23:26:33.178Z,68.64
2023-04-11T23:29:01.065Z,69.01
2023-04-11T23:31:27.840Z,69.04
2023-04-11T23:33:54.423Z,69.11
2023-04-11T23:36:20.914Z,69.41
2023-04-11T23:38:47.549Z,69.52
2023-04-11T23:41:14.680Z,69.23
2023-04-11T23:43:41.141Z,69.97
2023-04-11T23:46:07.615Z,70.39
2023-04-11T23:48:34.082Z,69.81
2023-04-11T23:51:00.544Z,70.40
2023-04-11T23:53:26.978Z,70.53
2023-04-11T23:55:53.451Z,70.98
2023-04-11T23:58:19.916Z,71.39
